createdAt,value
2023-08-01T00:00:24.463Z,97288.90
2023-08-01T00:03:14.563Z,97295.21
2023-08-01T00:05:45.976Z,97292.73
2023-08-01T00:08:14.896Z,97281.96
2023-08-01T00:10:43.340Z,97278.70
2023-08-01T00:13:11.997Z,97273.86
2023-08-01T00:15:41.790Z,97272.64
2023-08-01T00:18:11.904Z,97268.29
2023-08-01T00:20:40.980Z,97270.52
2023-08-01T00:23:09.784Z,97269.91
2023-08-01T00:25:39.146Z,97266.31
2023-08-01T00:28:08.550Z,97267.70
2023-08-01T00:30:36.796Z,97264.12
2023-08-01T00:33:05.012Z,97259.88
2023-08-01T00:35:33.167Z,97260.21
2023-08-01T00:38:01.550Z,97254.33
2023-08-01T00:40:35.429Z,97257.80
2023-08-01T00:43:05.250Z,97253.91
2023-08-01T00:45:34.073Z,97255.73
2023-08-01T00:48:03.193Z,97256.38
2023-08-01T00:50:31.527Z,97253.95
2023-08-01T00:53:00.103Z,97251.69
2023-08-01T00:55:34.605Z,97252.89
2023-08-01T00:58:04.838Z,97251.96
2023-08-01T01:00:34.500Z,97257.79
2023-08-01T01:03:04.490Z,97262.96
2023-08-01T01:05:39.205Z,97265.86
2023-08-01T01:08:07.695Z,97257.93
2023-08-01T01:10:35.966Z,97260.96
2023-08-01T01:13:05.036Z,97252.98
2023-08-01T01:15:34.068Z,97250.08
2023-08-01T01:18:05.562Z,97245.27
2023-08-01T01:20:37.742Z,97243.69
2023-08-01T01:23:07.084Z,97242.70
2023-08-01T01:25:37.788Z,97241.21
2023-08-01T01:28:08.763Z,97243.69
2023-08-01T01:30:37.019Z,97239.90
2023-08-01T01:33:06.278Z,97234.42
2023-08-01T01:35:36.307Z,97234.75
2023-08-01T01:38:05.996Z,97231.02
2023-08-01T01:40:34.551Z,97232.41
2023-08-01T01:43:03.278Z,97226.06
2023-08-01T01:45:32.948Z,97231.66
2023-08-01T01:48:01.726Z,97229.63
2023-08-01T01:50:30.447Z,97229.79
2023-08-01T01:52:58.782Z,97225.20
2023-08-01T01:55:27.005Z,97224.16
2023-08-01T01:57:55.709Z,97224.09
2023-08-01T02:00:23.862Z,97226.27
2023-08-01T02:02:53.356Z,97224.06
2023-08-01T02:05:21.661Z,97225.65
2023-08-01T02:07:49.827Z,97224.92
2023-08-01T02:10:18.421Z,97226.39
2023-08-01T02:12:47.346Z,97227.15
2023-08-01T02:15:15.537Z,97227.64
2023-08-01T02:17:44.339Z,97234.50
2023-08-01T02:20:13.372Z,97234.70
2023-08-01T02:22:42.083Z,97235.73
2023-08-01T02:25:10.216Z,97229.56
2023-08-01T02:27:38.322Z,97226.98
2023-08-01T02:30:07.423Z,97227.77
2023-08-01T02:32:36.793Z,97228.88
2023-08-01T02:35:05.629Z,97230.34
2023-08-01T02:37:33.723Z,97231.33
2023-08-01T02:40:09.042Z,97224.77
2023-08-01T02:42:37.521Z,97226.45
2023-08-01T02:45:06.658Z,97231.64
2023-08-01T02:47:35.026Z,97231.70
2023-08-01T02:50:03.366Z,97231.34
2023-08-01T02:52:34.514Z,97234.06
2023-08-01T02:55:02.748Z,97228.13
2023-08-01T02:57:31.064Z,97231.26
2023-08-01T03:00:00.699Z,97230.44
2023-08-01T03:02:29.310Z,97231.42
2023-08-01T03:04:58.197Z,97229.00
2023-08-01T03:07:26.286Z,97233.84
2023-08-01T03:10:01.814Z,97231.58
2023-08-01T03:12:30.176Z,97232.85
2023-08-01T03:14:59.765Z,97234.34
2023-08-01T03:17:28.214Z,97233.44
2023-08-01T03:19:57.776Z,97235.14
2023-08-01T03:22:26.306Z,97235.65
2023-08-01T03:24:54.533Z,97239.73
2023-08-01T03:27:23.751Z,97243.59
2023-08-01T03:29:51.924Z,97243.02
2023-08-01T03:32:20.322Z,97244.08
2023-08-01T03:34:50.102Z,97240.98
2023-08-01T03:37:19.174Z,97235.89
2023-08-01T03:39:48.049Z,97234.04
2023-08-01T03:42:16.508Z,97238.42
2023-08-01T03:44:45.191Z,97236.92
2023-08-01T03:47:13.288Z,97242.44
2023-08-01T03:49:41.960Z,97236.16
2023-08-01T03:52:10.206Z,97230.55
2023-08-01T03:54:38.549Z,97232.83
2023-08-01T03:57:06.757Z,97232.05
2023-08-01T03:59:35.843Z,97225.59
2023-08-01T04:02:06.066Z,97220.17
2023-08-01T04:04:34.581Z,97217.44
2023-08-01T04:07:02.940Z,97213.02
2023-08-01T04:09:31.430Z,97207.23
2023-08-01T04:11:59.682Z,97207.73
2023-08-01T04:14:30.017Z,97202.96
2023-08-01T04:16:58.297Z,97199.36
2023-08-01T04:19:27.771Z,97199.65
2023-08-01T04:21:55.985Z,97201.46
2023-08-01T04:24:26.487Z,97200.52
2023-08-01T04:27:01.744Z,97203.46
2023-08-01T04:29:29.938Z,97200.84
2023-08-01T04:31:58.596Z,97199.47
2023-08-01T04:34:26.658Z,97197.52
2023-08-01T04:36:57.111Z,97202.44
2023-08-01T04:39:25.351Z,97200.61
2023-08-01T04:41:55.688Z,97197.13
2023-08-01T04:44:24.882Z,97199.42
2023-08-01T04:46:53.542Z,97199.91
2023-08-01T04:49:22.536Z,97208.83
2023-08-01T04:51:52.111Z,97205.77
2023-08-01T04:54:20.219Z,97207.77
2023-08-01T04:56:49.487Z,97202.89
2023-08-01T04:59:17.784Z,97209.25
2023-08-01T05:01:46.296Z,97209.00
2023-08-01T05:04:16.396Z,97214.95
2023-08-01T05:06:44.887Z,97214.08
2023-08-01T05:09:13.544Z,97208.84
2023-08-01T05:11:41.719Z,97208.08
2023-08-01T05:14:09.942Z,97211.29
2023-08-01T05:16:38.795Z,97208.84
2023-08-01T05:19:09.510Z,97208.50
2023-08-01T05:21:38.428Z,97205.05
2023-08-01T05:24:06.844Z,97204.21
2023-08-01T05:26:35.454Z,97207.70
2023-08-01T05:29:04.217Z,97207.64
2023-08-01T05:31:32.482Z,97210.58
2023-08-01T05:34:03.536Z,97212.25
2023-08-01T05:36:31.776Z,97215.52
2023-08-01T05:39:00.471Z,97210.91
2023-08-01T05:41:29.959Z,97213.13
2023-08-01T05:43:59.383Z,97212.45
2023-08-01T05:46:27.858Z,97218.38
2023-08-01T05:48:55.973Z,97213.85
2023-08-01T05:51:24.068Z,97211.50
2023-08-01T05:53:52.945Z,97207.48
2023-08-01T05:56:21.617Z,97198.91
2023-08-01T05:58:49.904Z,97198.75
2023-08-01T06:01:21.355Z,97191.60
2023-08-01T06:03:49.694Z,97191.54
2023-08-01T06:06:19.691Z,97184.16
2023-08-01T06:08:52.796Z,97178.02
2023-08-01T06:11:21.147Z,97181.46
2023-08-01T06:14:00.099Z,97173.40
2023-08-01T06:16:28.868Z,97177.22
2023-08-01T06:18:58.140Z,97170.47
2023-08-01T06:21:29.810Z,97165.55
2023-08-01T06:23:58.565Z,97168.53
2023-08-01T06:26:27.305Z,97168.02
2023-08-01T06:28:55.715Z,97161.19
2023-08-01T06:31:27.492Z,97158.77
2023-08-01T06:33:56.622Z,97163.98
2023-08-01T06:36:27.543Z,97168.17
2023-08-01T06:38:57.298Z,97163.30
2023-08-01T06:41:25.968Z,97166.71
2023-08-01T06:43:54.836Z,97168.86
2023-08-01T06:46:25.414Z,97171.98
2023-08-01T06:48:54.771Z,97172.16
2023-08-01T06:51:23.144Z,97166.77
2023-08-01T06:53:56.688Z,97164.64
2023-08-01T06:56:26.382Z,97165.75
2023-08-01T06:58:55.744Z,97169.58
2023-08-01T07:01:24.694Z,97161.26
2023-08-01T07:03:53.628Z,97158.94
2023-08-01T07:06:27.117Z,97154.65
2023-08-01T07:08:55.746Z,97155.17
2023-08-01T07:11:24.724Z,97157.77
2023-08-01T07:13:54.657Z,97149.86
2023-08-01T07:16:23.448Z,97151.04
2023-08-01T07:18:52.012Z,97158.83
2023-08-01T07:21:24.550Z,97150.70
2023-08-01T07:23:54.318Z,97153.54
2023-08-01T07:26:22.654Z,97152.53
2023-08-01T07:28:51.986Z,97153.99
2023-08-01T07:31:21.487Z,97155.42
2023-08-01T07:33:50.820Z,97156.59
2023-08-01T07:36:23.651Z,97150.00
2023-08-01T07:38:51.900Z,97146.55
2023-08-01T07:41:20.167Z,97142.23
2023-08-01T07:43:48.443Z,97139.04
2023-08-01T07:46:16.726Z,97135.89
2023-08-01T07:48:45.011Z,97133.61
2023-08-01T07:51:13.794Z,97127.29
2023-08-01T07:53:42.057Z,97117.80
2023-08-01T07:56:10.263Z,97115.40
2023-08-01T07:58:40.977Z,97111.77
2023-08-01T08:01:10.011Z,97110.29
2023-08-01T08:03:38.780Z,97114.66
2023-08-01T08:06:08.440Z,97112.27
2023-08-01T08:08:38.033Z,97117.50
2023-08-01T08:11:13.080Z,97117.38
2023-08-01T08:13:43.728Z,97107.52
2023-08-01T08:16:12.652Z,97105.77
2023-08-01T08:18:44.999Z,97099.00
2023-08-01T08:21:16.226Z,97101.19
2023-08-01T08:23:44.423Z,97101.25
2023-08-01T08:26:15.382Z,97097.69
2023-08-01T08:28:46.476Z,97092.81
2023-08-01T08:31:16.526Z,97094.67
2023-08-01T08:33:45.439Z,97095.05
2023-08-01T08:36:16.290Z,97087.84
2023-08-01T08:38:45.164Z,97087.15
2023-08-01T08:41:22.002Z,97081.69
2023-08-01T08:43:51.001Z,97080.44
2023-08-01T08:46:22.473Z,97078.05
2023-08-01T08:48:52.004Z,97074.80
2023-08-01T08:51:21.508Z,97072.88
2023-08-01T08:53:54.681Z,97070.01
2023-08-01T08:56:24.476Z,97066.93
2023-08-01T08:58:54.983Z,97062.25
2023-08-01T09:01:24.774Z,97060.91
2023-08-01T09:03:54.478Z,97055.30
2023-08-01T09:06:26.227Z,97048.86
2023-08-01T09:09:07.742Z,97046.13
2023-08-01T09:11:53.734Z,97046.96
2023-08-01T09:14:22.097Z,97046.45
2023-08-01T09:16:51.095Z,97040.69
2023-08-01T09:19:21.014Z,97042.73
2023-08-01T09:21:50.379Z,97035.47
2023-08-01T09:24:22.376Z,97033.46
2023-08-01T09:26:56.388Z,97024.48
2023-08-01T09:29:26.553Z,97027.30
2023-08-01T09:35:08.652Z,97022.19
2023-08-01T09:37:44.690Z,97020.59
2023-08-01T09:40:18.918Z,97020.38
2023-08-01T09:43:03.056Z,97018.34
2023-08-01T09:45:36.978Z,97018.52
2023-08-01T09:48:06.945Z,97015.46
2023-08-01T09:50:36.724Z,97018.13
2023-08-01T09:53:10.947Z,97012.64
2023-08-01T09:55:43.276Z,97010.92
2023-08-01T09:58:13.964Z,97012.94
2023-08-01T10:00:44.828Z,97008.83
2023-08-01T10:03:16.091Z,97004.23
2023-08-01T10:05:45.232Z,97000.12
2023-08-01T10:08:15.529Z,96998.54
2023-08-01T10:10:45.160Z,96991.29
2023-08-01T10:13:18.582Z,96987.85
2023-08-01T10:15:53.167Z,96988.89
2023-08-01T10:18:26.335Z,96985.19
2023-08-01T10:20:55.657Z,96979.59
2023-08-01T10:23:30.293Z,96975.02
2023-08-01T10:26:02.727Z,96973.27
2023-08-01T10:28:37.125Z,96962.00
2023-08-01T10:31:20.038Z,96954.96
2023-08-01T10:33:57.588Z,96952.48
2023-08-01T10:36:30.542Z,96947.36
2023-08-01T10:39:03.896Z,96945.88
2023-08-01T10:41:36.510Z,96948.19
2023-08-01T10:44:06.473Z,96949.48
2023-08-01T10:47:00.330Z,96945.66
2023-08-01T10:49:43.954Z,96944.75
2023-08-01T10:52:30.889Z,96935.69
2023-08-01T10:55:03.424Z,96932.79
2023-08-01T10:57:37.371Z,96931.27
2023-08-01T11:00:11.386Z,96920.73
2023-08-01T11:02:46.047Z,96920.42
2023-08-01T11:05:14.846Z,96916.40
2023-08-01T11:08:02.029Z,96911.12
2023-08-01T11:10:33.551Z,96906.19
2023-08-01T11:13:06.471Z,96905.15
2023-08-01T11:15:40.075Z,96900.73
2023-08-01T11:18:10.799Z,96891.73
2023-08-01T11:20:44.829Z,96886.35
2023-08-01T11:23:13.315Z,96881.13
2023-08-01T11:25:46.866Z,96878.73
2023-08-01T11:28:24.247Z,96880.17
2023-08-01T11:30:53.196Z,96872.58
2023-08-01T11:33:25.112Z,96870.96
2023-08-01T11:35:57.632Z,96870.63
2023-08-01T11:38:31.482Z,96870.68
2023-08-01T11:41:05.316Z,96870.66
2023-08-01T11:43:41.624Z,96863.94
2023-08-01T11:46:12.154Z,96862.71
2023-08-01T11:48:45.492Z,96867.55
2023-08-01T11:51:14.203Z,96867.54
2023-08-01T11:53:42.495Z,96860.54
2023-08-01T11:56:23.852Z,96857.41
2023-08-01T11:58:55.272Z,96845.61
2023-08-01T12:01:25.686Z,96846.60
2023-08-01T12:04:00.480Z,96840.61
2023-08-01T12:06:33.548Z,96840.95
2023-08-01T12:09:10.362Z,96840.15
2023-08-01T12:11:43.433Z,96831.70
2023-08-01T12:14:16.595Z,96834.40
2023-08-01T12:17:09.590Z,96825.34
2023-08-01T12:19:38.701Z,96829.59
2023-08-01T12:22:10.249Z,96821.45
2023-08-01T12:24:39.018Z,96821.23
2023-08-01T12:27:10.184Z,96825.48
2023-08-01T12:29:39.908Z,96825.75
2023-08-01T12:32:09.785Z,96819.95
2023-08-01T12:34:41.695Z,96820.55
2023-08-01T12:37:11.280Z,96821.27
2023-08-01T12:39:40.624Z,96819.13
2023-08-01T12:42:10.610Z,96818.63
2023-08-01T12:44:38.906Z,96814.03
2023-08-01T12:47:09.944Z,96813.41
2023-08-01T12:49:41.232Z,96805.48
2023-08-01T12:52:12.081Z,96806.48
2023-08-01T12:54:40.542Z,96802.93
2023-08-01T12:57:08.813Z,96801.90
2023-08-01T12:59:37.611Z,96796.96
2023-08-01T13:02:09.637Z,96788.15
2023-08-01T13:04:38.107Z,96789.27
2023-08-01T13:07:07.314Z,96791.94
2023-08-01T13:09:36.721Z,96800.42
2023-08-01T13:12:05.551Z,96795.64
2023-08-01T13:14:34.592Z,96792.67
2023-08-01T13:17:04.052Z,96783.75
2023-08-01T13:19:33.327Z,96777.21
2023-08-01T13:22:02.633Z,96776.86
2023-08-01T13:24:35.809Z,96770.30
2023-08-01T13:27:05.768Z,96767.50
2023-08-01T13:29:34.630Z,96764.60
2023-08-01T13:32:03.098Z,96759.98
2023-08-01T13:34:31.475Z,96765.10
2023-08-01T13:36:59.941Z,96764.04
2023-08-01T13:39:30.985Z,96761.52
2023-08-01T13:41:59.614Z,96761.45
2023-08-01T13:44:28.852Z,96763.74
2023-08-01T13:46:57.240Z,96753.83
2023-08-01T13:49:26.026Z,96749.44
2023-08-01T13:51:54.601Z,96743.11
2023-08-01T13:54:27.417Z,96742.33
2023-08-01T13:56:57.001Z,96739.08
2023-08-01T13:59:25.343Z,96729.55
2023-08-01T14:01:54.157Z,96734.52
2023-08-01T14:04:22.648Z,96729.77
2023-08-01T14:06:51.187Z,96730.19
2023-08-01T14:09:19.527Z,96722.52
2023-08-01T14:11:49.922Z,96713.75
2023-08-01T14:14:18.581Z,96713.21
2023-08-01T14:16:47.048Z,96709.84
2023-08-01T14:19:15.508Z,96708.41
2023-08-01T14:21:43.799Z,96708.41
2023-08-01T14:24:12.265Z,96708.55
2023-08-01T14:26:42.827Z,96701.75
2023-08-01T14:29:11.330Z,96701.40
2023-08-01T14:31:39.660Z,96701.80
2023-08-01T14:34:11.277Z,96697.64
2023-08-01T14:36:41.683Z,96691.59
2023-08-01T14:44:14.280Z,96679.92
2023-08-01T14:46:42.719Z,96676.30
2023-08-01T14:49:13.044Z,96678.41
2023-08-01T14:51:42.040Z,96674.52
2023-08-01T14:54:10.626Z,96669.58
2023-08-01T14:56:40.351Z,96674.36
2023-08-01T14:59:08.824Z,96663.29
2023-08-01T15:01:37.160Z,96664.45
2023-08-01T15:04:05.864Z,96655.23
2023-08-01T15:06:34.129Z,96651.54
2023-08-01T15:09:02.692Z,96647.05
2023-08-01T15:11:30.802Z,96645.04
2023-08-01T15:13:59.019Z,96634.70
2023-08-01T15:16:27.197Z,96636.96
2023-08-01T15:18:57.690Z,96640.23
2023-08-01T15:21:30.159Z,96640.67
2023-08-01T15:23:58.492Z,96634.94
2023-08-01T15:26:29.874Z,96638.42
2023-08-01T15:28:58.034Z,96635.10
2023-08-01T15:31:28.786Z,96631.55
2023-08-01T15:33:57.409Z,96630.00
2023-08-01T15:36:30.238Z,96627.66
2023-08-01T15:39:00.090Z,96629.94
2023-08-01T15:41:30.125Z,96629.52
2023-08-01T15:43:58.304Z,96629.91
2023-08-01T15:46:26.617Z,96630.23
2023-08-01T15:48:54.993Z,96624.25
2023-08-01T15:51:23.225Z,96623.89
2023-08-01T15:53:53.856Z,96627.63
2023-08-01T15:56:23.132Z,96626.75
2023-08-01T15:58:52.430Z,96621.50
2023-08-01T16:01:23.215Z,96615.80
2023-08-01T16:03:51.464Z,96615.83
2023-08-01T16:06:20.303Z,96621.36
2023-08-01T16:08:48.595Z,96615.98
2023-08-01T16:11:17.049Z,96616.98
2023-08-01T16:13:45.330Z,96619.57
2023-08-01T16:16:13.527Z,96617.42
2023-08-01T16:18:42.360Z,96620.88
2023-08-01T16:21:11.372Z,96627.02
2023-08-01T16:23:39.629Z,96628.15
2023-08-01T16:26:08.207Z,96629.34
2023-08-01T16:28:36.596Z,96628.27
2023-08-01T16:31:06.169Z,96629.32
2023-08-01T16:33:35.008Z,96626.47
2023-08-01T16:36:03.311Z,96630.66
2023-08-01T16:38:31.485Z,96631.44
2023-08-01T16:40:59.829Z,96631.98
2023-08-01T16:43:28.049Z,96632.41
2023-08-01T16:45:59.687Z,96632.95
2023-08-01T16:48:31.888Z,96631.00
2023-08-01T16:51:00.242Z,96627.65
2023-08-01T16:53:29.334Z,96626.50
2023-08-01T16:55:57.678Z,96625.42
2023-08-01T16:58:26.305Z,96627.52
2023-08-01T17:00:56.444Z,96625.77
2023-08-01T17:03:24.926Z,96622.70
2023-08-01T17:05:54.889Z,96622.82
2023-08-01T17:08:23.313Z,96623.09
2023-08-01T17:10:51.459Z,96632.15
2023-08-01T17:13:24.213Z,96628.11
2023-08-01T17:15:52.948Z,96623.39
2023-08-01T17:18:22.437Z,96620.19
2023-08-01T17:20:51.097Z,96621.42
2023-08-01T17:23:19.356Z,96621.27
2023-08-01T17:25:48.175Z,96623.21
2023-08-01T17:28:16.361Z,96629.83
2023-08-01T17:30:45.320Z,96629.90
2023-08-01T17:33:13.595Z,96630.23
2023-08-01T17:35:42.852Z,96628.94
2023-08-01T17:38:11.032Z,96626.05
2023-08-01T17:40:45.755Z,96621.38
2023-08-01T17:43:13.942Z,96621.52
2023-08-01T17:45:42.328Z,96621.34
2023-08-01T17:48:12.115Z,96627.33
2023-08-01T17:50:44.092Z,96625.36
2023-08-01T17:53:12.168Z,96626.60
2023-08-01T17:55:42.438Z,96632.31
2023-08-01T17:58:10.593Z,96634.29
2023-08-01T18:00:38.768Z,96632.59
2023-08-01T18:03:08.204Z,96634.81
2023-08-01T18:05:36.579Z,96635.41
2023-08-01T18:08:04.953Z,96633.60
2023-08-01T18:10:39.268Z,96631.15
2023-08-01T18:13:08.102Z,96627.86
2023-08-01T18:15:42.935Z,96628.36
2023-08-01T18:18:12.483Z,96629.20
2023-08-01T18:20:43.593Z,96624.35
2023-08-01T18:23:11.881Z,96625.67
2023-08-01T18:25:40.278Z,96626.80
2023-08-01T18:28:08.983Z,96635.10
2023-08-01T18:30:38.841Z,96639.77
2023-08-01T18:33:07.277Z,96643.13
2023-08-01T18:35:45.984Z,96651.52
2023-08-01T18:38:16.883Z,96649.10
2023-08-01T18:40:46.046Z,96650.48
2023-08-01T18:43:14.293Z,96649.58
2023-08-01T18:45:42.461Z,96647.36
2023-08-01T18:48:11.874Z,96643.65
2023-08-01T18:50:40.069Z,96645.36
2023-08-01T18:53:08.392Z,96651.92
2023-08-01T18:55:38.769Z,96657.86
2023-08-01T18:58:07.013Z,96660.33
2023-08-01T19:00:35.504Z,96657.90
2023-08-01T19:03:04.154Z,96656.21
2023-08-01T19:05:33.173Z,96651.70
2023-08-01T19:08:02.099Z,96655.91
2023-08-01T19:10:30.572Z,96647.05
2023-08-01T19:12:59.257Z,96648.20
2023-08-01T19:15:31.726Z,96646.98
2023-08-01T19:18:00.463Z,96645.41
2023-08-01T19:20:28.680Z,96643.69
2023-08-01T19:22:57.144Z,96643.88
2023-08-01T19:25:25.885Z,96640.70
2023-08-01T19:27:55.219Z,96638.73
2023-08-01T19:30:24.148Z,96633.16
2023-08-01T19:32:52.495Z,96626.56
2023-08-01T19:35:23.020Z,96633.98
2023-08-01T19:37:51.445Z,96636.92
2023-08-01T19:40:19.913Z,96634.78
2023-08-01T19:42:48.964Z,96637.38
2023-08-01T19:45:17.491Z,96639.77
2023-08-01T19:47:46.389Z,96643.00
2023-08-01T19:50:15.116Z,96644.88
2023-08-01T19:52:43.509Z,96652.20
2023-08-01T19:55:12.384Z,96651.64
2023-08-01T19:57:40.888Z,96655.45
2023-08-01T20:00:12.653Z,96656.63
2023-08-01T20:02:46.827Z,96651.80
2023-08-01T20:05:17.888Z,96653.02
2023-08-01T20:07:47.242Z,96651.77
2023-08-01T20:10:15.800Z,96653.79
2023-08-01T20:12:46.944Z,96654.66
2023-08-01T20:15:16.789Z,96656.10
2023-08-01T20:17:47.018Z,96655.17
2023-08-01T20:20:15.309Z,96658.25
2023-08-01T20:22:46.319Z,96659.74
2023-08-01T20:25:14.707Z,96657.16
2023-08-01T20:27:43.087Z,96650.09
2023-08-01T20:30:11.937Z,96648.21
2023-08-01T20:32:40.537Z,96651.52
2023-08-01T20:35:10.151Z,96649.36
2023-08-01T20:37:41.048Z,96652.33
2023-08-01T20:40:13.533Z,96652.30
2023-08-01T20:42:42.141Z,96656.95
2023-08-01T20:45:11.774Z,96656.64
2023-08-01T20:47:44.091Z,96664.16
2023-08-01T20:50:12.333Z,96664.70
2023-08-01T20:52:41.422Z,96667.81
2023-08-01T20:55:09.891Z,96668.49
2023-08-01T20:57:38.218Z,96674.11
2023-08-01T21:00:08.790Z,96673.02
2023-08-01T21:02:36.978Z,96666.64
2023-08-01T21:05:06.529Z,96667.81
2023-08-01T21:07:34.720Z,96678.74
2023-08-01T21:10:03.843Z,96683.17
2023-08-01T21:12:33.377Z,96681.36
2023-08-01T21:15:04.221Z,96680.36
2023-08-01T21:17:32.501Z,96682.06
2023-08-01T21:20:01.319Z,96676.82
2023-08-01T21:22:29.939Z,96671.98
2023-08-01T21:24:58.431Z,96667.91
2023-08-01T21:27:26.607Z,96672.38
2023-08-01T21:29:54.941Z,96676.71
2023-08-01T21:32:24.029Z,96682.35
2023-08-01T21:34:53.422Z,96675.50
2023-08-01T21:37:24.415Z,96676.86
2023-08-01T21:39:54.220Z,96679.33
2023-08-01T21:42:23.248Z,96684.13
2023-08-01T21:44:54.694Z,96686.92
2023-08-01T21:47:22.904Z,96682.06
2023-08-01T21:49:51.568Z,96688.45
2023-08-01T21:52:20.112Z,96691.03
2023-08-01T21:54:50.550Z,96701.71
2023-08-01T21:57:18.725Z,96696.83
2023-08-01T21:59:46.845Z,96699.15
2023-08-01T22:02:15.537Z,96695.48
2023-08-01T22:04:43.777Z,96691.83
2023-08-01T22:07:12.006Z,96692.34
2023-08-01T22:09:40.403Z,96690.92
2023-08-01T22:12:10.432Z,96698.70
2023-08-01T22:14:38.613Z,96696.09
2023-08-01T22:17:07.056Z,96692.95
2023-08-01T22:19:35.534Z,96699.44
2023-08-01T22:22:04.202Z,96695.30
2023-08-01T22:24:33.250Z,96699.58
2023-08-01T22:27:01.420Z,96697.87
2023-08-01T22:29:30.034Z,96692.98
2023-08-01T22:31:59.357Z,96701.55
2023-08-01T22:34:27.521Z,96699.33
2023-08-01T22:36:57.013Z,96694.23
2023-08-01T22:39:26.050Z,96691.02
2023-08-01T22:41:56.440Z,96688.80
2023-08-01T22:44:26.263Z,96690.19
2023-08-01T22:46:54.688Z,96687.80
2023-08-01T22:49:24.636Z,96689.55
2023-08-01T22:51:52.974Z,96687.48
2023-08-01T22:54:21.748Z,96685.55
2023-08-01T22:56:51.320Z,96688.45
2023-08-01T22:59:19.550Z,96679.44
2023-08-01T23:01:48.376Z,96679.89
2023-08-01T23:04:16.529Z,96673.98
2023-08-01T23:06:45.184Z,96677.79
2023-08-01T23:09:13.807Z,96679.28
2023-08-01T23:11:42.115Z,96683.28
2023-08-01T23:14:10.775Z,96693.05
2023-08-01T23:16:39.212Z,96690.14
2023-08-01T23:19:10.148Z,96693.84
2023-08-01T23:21:38.232Z,96695.55
2023-08-01T23:24:07.162Z,96688.85
2023-08-01T23:26:36.049Z,96687.00
2023-08-01T23:29:04.812Z,96692.11
2023-08-01T23:31:33.220Z,96694.32
2023-08-01T23:34:01.668Z,96691.30
2023-08-01T23:36:29.877Z,96695.48
2023-08-01T23:38:58.111Z,96702.60
2023-08-01T23:41:28.557Z,96699.92
2023-08-01T23:43:56.669Z,96707.70
2023-08-01T23:46:25.487Z,96700.06
2023-08-01T23:48:53.828Z,96706.09
2023-08-01T23:51:22.413Z,96710.05
2023-08-01T23:53:50.476Z,96712.58
2023-08-01T23:56:18.760Z,96712.94
2023-08-01T23:58:47.697Z,96718.54
